Cochituate, Massachusetts
Current Conditions -  °F | °C
As of 5:56 PM on Thursday 18 Dec 2014 (Local Time) from KBED Reporting Station
Scattered Clouds Scattered Clouds  
Wind Chill: 32°   Ceiling: Unl
Heat Index: 37°   Visibility: 10mi
Dew Point: 27°   Wind: 6mph
Humidity: 67%   Direction: 260°W
Pressure: 29.82"   Gusts: 20mph
Location:  42.3586°N, 71.3587°W
Report Text: KBED 182256Z 26005G17KT 10SM SCT035 03/M03 A2982 RMK AO2 SLP114 T00281028
Loading
Personal Weather Stations






























Interactive Weather Map New forecast layout! Learn more

10-Day Weather Forecast

Advertisements
Track Severe Weather on mobile